createdAt,value
2022-09-06T00:01:50.833Z,5.00
2022-09-06T00:04:18.648Z,4.40
2022-09-06T00:06:46.319Z,4.00
2022-09-06T00:09:14.076Z,2.40
2022-09-06T00:11:42.975Z,2.00
2022-09-06T00:14:10.706Z,4.80
2022-09-06T00:16:40.742Z,2.00
2022-09-06T00:19:08.588Z,2.00
2022-09-06T00:21:36.877Z,4.20
2022-09-06T00:24:04.605Z,4.00
2022-09-06T00:26:32.437Z,4.60
2022-09-06T00:29:00.281Z,4.60
2022-09-06T00:31:28.906Z,4.00
2022-09-06T00:33:56.699Z,5.00
2022-09-06T00:36:24.470Z,4.00
2022-09-06T00:38:52.083Z,4.00
2022-09-06T00:41:20.086Z,5.00
2022-09-06T00:43:47.748Z,2.40
2022-09-06T00:46:15.608Z,4.60
2022-09-06T00:48:43.391Z,4.00
2022-09-06T00:51:12.038Z,4.00
2022-09-06T00:53:39.858Z,4.60
2022-09-06T00:56:07.515Z,3.60
2022-09-06T00:58:35.220Z,3.20
2022-09-06T01:01:03.164Z,4.40
2022-09-06T01:03:30.788Z,4.00
2022-09-06T01:05:58.570Z,4.00
2022-09-06T01:08:26.463Z,3.60
2022-09-06T01:10:55.589Z,3.20
2022-09-06T01:13:23.287Z,5.00
2022-09-06T01:15:51.022Z,3.60
2022-09-06T01:18:18.703Z,4.00
2022-09-06T01:20:46.686Z,4.00
2022-09-06T01:23:14.380Z,4.00
2022-09-06T01:25:42.117Z,4.20
2022-09-06T01:28:09.882Z,4.00
2022-09-06T01:30:38.537Z,2.00
2022-09-06T01:33:06.281Z,4.00
2022-09-06T01:35:34.931Z,4.20
2022-09-06T01:38:02.540Z,4.20
2022-09-06T01:40:30.547Z,4.00
2022-09-06T01:42:58.369Z,5.00
2022-09-06T01:45:26.315Z,2.40
2022-09-06T01:47:54.037Z,4.00
2022-09-06T01:50:21.709Z,3.20
2022-09-06T01:52:49.984Z,4.00
2022-09-06T01:55:17.735Z,4.40
2022-09-06T01:57:45.574Z,4.00
2022-09-06T02:00:13.305Z,5.00
2022-09-06T02:02:41.407Z,1.00
2022-09-06T02:05:09.160Z,4.60
2022-09-06T02:07:36.843Z,4.00
2022-09-06T02:10:04.604Z,4.00
2022-09-06T02:12:32.571Z,1.00
2022-09-06T02:15:00.328Z,3.60
2022-09-06T02:17:28.441Z,2.40
2022-09-06T02:19:56.101Z,4.00
2022-09-06T02:22:24.108Z,0.80
2022-09-06T02:24:51.836Z,4.00
2022-09-06T02:27:19.543Z,2.40
2022-09-06T02:29:47.233Z,4.00
2022-09-06T02:32:15.618Z,4.00
2022-09-06T02:34:43.407Z,2.40
2022-09-06T02:37:11.088Z,3.20
2022-09-06T02:39:38.875Z,2.80
2022-09-06T02:42:07.466Z,4.00
2022-09-06T02:44:35.221Z,2.00
2022-09-06T02:47:03.511Z,4.00
2022-09-06T02:49:31.430Z,3.20
2022-09-06T02:51:59.411Z,2.80
2022-09-06T02:54:27.071Z,2.00
2022-09-06T02:56:54.821Z,3.60
2022-09-06T02:59:22.565Z,2.00
2022-09-06T03:01:50.480Z,1.80
2022-09-06T03:04:18.287Z,3.60
2022-09-06T03:06:46.009Z,4.00
2022-09-06T03:09:13.696Z,2.00
2022-09-06T03:11:41.659Z,2.80
2022-09-06T03:14:09.378Z,4.20
2022-09-06T03:16:38.615Z,3.60
2022-09-06T03:19:06.490Z,4.00
2022-09-06T03:21:34.969Z,1.00
2022-09-06T03:24:02.706Z,3.20
2022-09-06T03:26:30.775Z,2.00
2022-09-06T03:28:58.436Z,2.00
2022-09-06T03:31:27.433Z,4.40
2022-09-06T03:33:55.153Z,4.20
2022-09-06T03:36:22.889Z,3.60
2022-09-06T03:38:51.265Z,4.00
2022-09-06T03:41:19.221Z,4.00
2022-09-06T03:43:47.073Z,4.20
2022-09-06T03:46:14.946Z,3.20
2022-09-06T03:48:42.797Z,2.00
2022-09-06T03:51:10.910Z,2.00
2022-09-06T03:53:38.640Z,2.00
2022-09-06T03:56:06.477Z,4.00
2022-09-06T03:58:34.274Z,3.60
2022-09-06T04:01:02.287Z,4.00
2022-09-06T04:03:30.060Z,2.40
2022-09-06T04:05:57.761Z,3.60
2022-09-06T04:08:25.605Z,2.00
2022-09-06T04:10:53.627Z,5.00
2022-09-06T04:13:21.488Z,3.60
2022-09-06T04:15:49.092Z,1.60
2022-09-06T04:18:16.796Z,4.00
2022-09-06T04:20:44.457Z,4.20
2022-09-06T04:23:12.432Z,3.60
2022-09-06T04:25:40.223Z,3.20
2022-09-06T04:28:07.901Z,3.60
2022-09-06T04:30:35.637Z,4.00
2022-09-06T04:33:03.700Z,5.80
2022-09-06T04:35:31.406Z,4.00
2022-09-06T04:37:59.203Z,5.00
2022-09-06T04:40:27.015Z,2.00
2022-09-06T04:42:55.047Z,3.20
2022-09-06T04:45:22.722Z,2.00
2022-09-06T04:47:51.675Z,1.40
2022-09-06T04:50:19.386Z,3.60
2022-09-06T04:52:47.351Z,2.00
2022-09-06T04:55:15.114Z,4.00
2022-09-06T04:57:46.595Z,2.00
2022-09-06T05:00:16.265Z,4.00
2022-09-06T05:02:45.218Z,4.00
2022-09-06T05:05:13.018Z,3.20
2022-09-06T05:07:40.673Z,4.00
2022-09-06T05:10:09.116Z,4.00
2022-09-06T05:12:38.844Z,4.20
2022-09-06T05:15:09.896Z,4.00
2022-09-06T05:17:37.546Z,4.40
2022-09-06T05:20:05.201Z,2.00
2022-09-06T05:22:33.217Z,4.00
2022-09-06T05:25:00.917Z,4.80
2022-09-06T05:27:28.708Z,6.00
2022-09-06T05:29:56.450Z,5.00
2022-09-06T05:32:25.108Z,4.00
2022-09-06T05:34:52.853Z,5.00
2022-09-06T05:37:20.636Z,4.00
2022-09-06T05:39:48.354Z,2.80
2022-09-06T05:42:19.281Z,2.00
2022-09-06T05:44:47.159Z,3.20
2022-09-06T05:47:14.957Z,3.60
2022-09-06T05:49:42.706Z,2.40
2022-09-06T05:52:10.387Z,4.00
2022-09-06T05:54:38.010Z,3.80
2022-09-06T05:57:05.828Z,4.80
2022-09-06T05:59:34.388Z,3.20
2022-09-06T06:02:05.457Z,4.20
2022-09-06T06:04:35.068Z,4.80
2022-09-06T06:07:02.928Z,4.80
2022-09-06T06:09:30.970Z,4.00
2022-09-06T06:11:58.647Z,2.00
2022-09-06T06:14:26.395Z,2.00
2022-09-06T06:16:54.289Z,4.00
2022-09-06T06:19:22.037Z,7.00
2022-09-06T06:21:50.364Z,6.60
2022-09-06T06:24:18.036Z,4.60
2022-09-06T06:26:45.796Z,4.80
2022-09-06T06:29:13.714Z,5.00
2022-09-06T06:31:41.751Z,5.00
2022-09-06T06:34:09.479Z,3.20
2022-09-06T06:36:37.253Z,4.00
2022-09-06T06:39:05.094Z,4.00
2022-09-06T06:41:33.008Z,4.80
2022-09-06T06:44:00.806Z,2.00
2022-09-06T06:46:28.600Z,5.00
2022-09-06T06:48:56.465Z,2.00
2022-09-06T06:51:25.472Z,2.00
2022-09-06T06:53:53.206Z,2.00
2022-09-06T06:56:20.883Z,4.40
2022-09-06T06:58:48.615Z,2.80
2022-09-06T07:01:17.801Z,4.00
2022-09-06T07:03:45.736Z,4.00
2022-09-06T07:06:13.598Z,5.00
2022-09-06T07:08:41.468Z,4.80
2022-09-06T07:11:10.088Z,3.60
2022-09-06T07:13:37.763Z,5.00
2022-09-06T07:16:05.546Z,5.00
2022-09-06T07:18:33.205Z,4.00
2022-09-06T07:26:33.052Z,2.40
2022-09-06T07:29:01.876Z,3.80
2022-09-06T07:34:18.171Z,4.00
2022-09-06T07:36:46.802Z,3.20
2022-09-06T07:39:14.543Z,3.20
2022-09-06T07:41:42.267Z,4.60
2022-09-06T07:44:10.116Z,1.00
2022-09-06T07:46:37.796Z,3.00
2022-09-06T07:49:05.545Z,2.00
2022-09-06T07:51:33.468Z,3.00
2022-09-06T07:54:26.398Z,3.00
2022-09-06T07:56:48.993Z,3.00
2022-09-06T07:59:19.019Z,3.40
2022-09-06T08:01:47.884Z,2.40
2022-09-06T08:04:15.701Z,2.20
2022-09-06T08:09:31.449Z,2.20
2022-09-06T08:11:59.493Z,2.80
2022-09-06T08:14:27.161Z,1.00
2022-09-06T08:16:55.056Z,2.00
2022-09-06T08:19:22.878Z,2.00
2022-09-06T08:21:51.059Z,1.00
2022-09-06T08:24:18.933Z,2.20
2022-09-06T08:26:46.784Z,2.00
2022-09-06T08:29:14.482Z,2.00
2022-09-06T08:31:42.342Z,1.80
2022-09-06T08:34:12.712Z,1.00
2022-09-06T08:36:40.904Z,0.00
2022-09-06T08:39:09.246Z,1.00
2022-09-06T08:41:37.110Z,1.00
2022-09-06T08:46:52.920Z,1.00
2022-09-06T08:49:20.754Z,1.00
2022-09-06T08:51:48.779Z,1.00
2022-09-06T08:54:16.518Z,1.00
2022-09-06T08:56:44.267Z,0.60
2022-09-06T08:59:12.122Z,1.00
2022-09-06T09:01:41.626Z,1.20
2022-09-06T09:04:09.476Z,2.00
2022-09-06T09:06:37.176Z,1.40
2022-09-06T09:09:05.058Z,1.00
2022-09-06T09:11:36.290Z,1.00
2022-09-06T09:14:04.139Z,2.00
2022-09-06T09:16:31.942Z,1.00
2022-09-06T09:18:59.749Z,1.40
2022-09-06T09:21:30.640Z,1.00
2022-09-06T09:23:58.991Z,1.00
2022-09-06T09:26:26.983Z,1.00
2022-09-06T09:28:54.740Z,1.80
2022-09-06T09:31:23.454Z,1.00
2022-09-06T09:33:51.465Z,1.00
2022-09-06T09:36:19.201Z,1.00
2022-09-06T09:38:47.000Z,0.40
2022-09-06T09:41:15.041Z,1.00
2022-09-06T09:43:42.785Z,1.00
2022-09-06T09:46:11.061Z,0.40
2022-09-06T09:48:39.901Z,1.80
2022-09-06T09:51:07.555Z,0.20
2022-09-06T09:53:35.337Z,1.00
2022-09-06T09:56:03.096Z,1.00
2022-09-06T09:58:31.766Z,0.40
2022-09-06T10:00:59.587Z,1.00
2022-09-06T10:03:27.673Z,1.00
2022-09-06T10:06:02.057Z,0.00
2022-09-06T10:08:30.843Z,0.40
2022-09-06T10:10:58.954Z,1.40
2022-09-06T10:13:26.807Z,1.00
2022-09-06T10:15:54.616Z,1.00
2022-09-06T10:18:22.477Z,1.00
2022-09-06T10:20:50.558Z,1.00
2022-09-06T10:23:18.583Z,1.00
2022-09-06T10:25:49.556Z,1.00
2022-09-06T10:28:17.595Z,0.40
2022-09-06T10:30:45.757Z,0.00
2022-09-06T10:33:13.915Z,1.00
2022-09-06T10:35:41.674Z,1.00
2022-09-06T10:38:10.196Z,0.20
2022-09-06T10:40:38.316Z,0.00
2022-09-06T10:43:06.123Z,0.20
2022-09-06T10:45:34.211Z,0.20
2022-09-06T10:48:03.193Z,0.40
2022-09-06T10:50:30.873Z,0.00
2022-09-06T10:52:58.870Z,1.20
2022-09-06T10:55:26.663Z,0.20
2022-09-06T11:00:42.271Z,0.20
2022-09-06T11:05:57.885Z,0.20
2022-09-06T11:11:13.382Z,0.20
2022-09-06T11:13:41.190Z,0.20
2022-09-06T11:16:09.253Z,0.20
2022-09-06T11:18:37.071Z,0.00
2022-09-06T11:21:05.077Z,0.00
2022-09-06T11:23:32.895Z,0.00
2022-09-06T11:26:00.613Z,0.80
2022-09-06T11:28:28.376Z,0.00
2022-09-06T11:30:56.569Z,0.00
2022-09-06T11:33:24.452Z,1.00
2022-09-06T11:35:52.374Z,0.00
2022-09-06T11:38:20.087Z,0.00
2022-09-06T11:40:47.984Z,0.00
2022-09-06T11:43:15.647Z,0.00
2022-09-06T11:45:43.338Z,0.40
2022-09-06T11:48:10.996Z,0.20
2022-09-06T11:50:38.688Z,0.00
2022-09-06T11:53:06.693Z,0.60
2022-09-06T11:55:34.523Z,1.00
2022-09-06T11:58:02.250Z,1.00
2022-09-06T12:00:30.121Z,0.60
2022-09-06T12:05:48.230Z,0.00
2022-09-06T12:08:16.042Z,1.00
2022-09-06T12:10:49.893Z,1.60
2022-09-06T12:13:17.493Z,0.20
2022-09-06T12:15:45.202Z,0.00
2022-09-06T12:18:12.952Z,0.60
2022-09-06T12:20:46.198Z,0.80
2022-09-06T12:23:13.886Z,1.00
2022-09-06T12:25:41.900Z,1.00
2022-09-06T12:28:09.947Z,1.60
2022-09-06T12:30:37.810Z,1.00
2022-09-06T12:33:05.751Z,2.00
2022-09-06T12:38:22.281Z,1.00
2022-09-06T12:40:51.812Z,1.00
2022-09-06T12:43:19.599Z,1.20
2022-09-06T12:45:47.339Z,0.20
2022-09-06T12:48:16.689Z,1.00
2022-09-06T12:50:45.351Z,2.00
2022-09-06T12:53:15.853Z,1.20
2022-09-06T12:55:43.770Z,1.00
2022-09-06T12:58:11.663Z,1.00
2022-09-06T13:00:39.655Z,0.40
2022-09-06T13:03:12.044Z,2.40
2022-09-06T13:05:39.707Z,2.00
2022-09-06T13:08:07.456Z,1.80
2022-09-06T13:10:35.185Z,2.00
2022-09-06T13:13:05.376Z,2.80
2022-09-06T13:15:33.141Z,2.40
2022-09-06T13:18:00.892Z,2.40
2022-09-06T13:20:28.552Z,1.20
2022-09-06T13:22:56.263Z,3.00
2022-09-06T13:25:24.014Z,2.80
2022-09-06T13:27:52.083Z,3.00
2022-09-06T13:30:19.883Z,3.00
2022-09-06T13:32:47.969Z,2.20
2022-09-06T13:35:15.755Z,0.00
2022-09-06T13:37:45.446Z,2.00
2022-09-06T13:40:13.194Z,2.00
2022-09-06T13:42:41.208Z,2.60
2022-09-06T13:45:09.010Z,3.00
2022-09-06T13:47:36.833Z,2.00
2022-09-06T13:50:04.654Z,2.00
2022-09-06T13:52:33.327Z,1.40
2022-09-06T13:55:01.074Z,2.20
2022-09-06T13:57:28.828Z,2.00
2022-09-06T13:59:56.496Z,2.00
2022-09-06T14:02:25.236Z,2.00
2022-09-06T14:04:52.977Z,3.00
2022-09-06T14:07:20.960Z,2.20
2022-09-06T14:09:50.251Z,0.40
2022-09-06T14:12:18.275Z,3.00
2022-09-06T14:14:46.064Z,1.20
2022-09-06T14:17:14.433Z,1.00
2022-09-06T14:19:42.965Z,1.40
2022-09-06T14:22:10.997Z,1.80
2022-09-06T14:24:38.764Z,1.20
2022-09-06T14:27:07.330Z,1.00
2022-09-06T14:29:35.889Z,2.80
2022-09-06T14:32:03.614Z,2.20
2022-09-06T14:34:31.421Z,2.00
2022-09-06T14:36:59.291Z,2.00
2022-09-06T14:39:27.847Z,2.00
2022-09-06T14:41:55.632Z,1.40
2022-09-06T14:44:23.377Z,2.00
2022-09-06T14:46:53.615Z,2.00
2022-09-06T14:49:21.939Z,1.60
2022-09-06T14:51:49.699Z,2.00
2022-09-06T14:54:17.521Z,2.00
2022-09-06T14:56:45.157Z,2.20
2022-09-06T14:59:12.912Z,2.20
2022-09-06T15:01:41.243Z,2.60
2022-09-06T15:04:09.426Z,2.20
2022-09-06T15:06:37.220Z,2.20
2022-09-06T15:09:05.632Z,1.40
2022-09-06T15:11:34.698Z,2.20
2022-09-06T15:14:04.184Z,0.60
2022-09-06T15:16:32.898Z,2.20
2022-09-06T15:19:00.742Z,1.20
2022-09-06T15:21:28.591Z,2.20
2022-09-06T15:23:57.121Z,2.20
2022-09-06T15:26:25.412Z,2.20
2022-09-06T15:28:53.086Z,3.00
2022-09-06T15:31:21.197Z,1.80
2022-09-06T15:33:50.028Z,2.00
2022-09-06T15:36:17.715Z,1.00
2022-09-06T15:38:45.597Z,1.40
2022-09-06T15:41:13.357Z,1.20
2022-09-06T15:43:42.280Z,2.00
2022-09-06T15:46:10.721Z,1.00
2022-09-06T15:48:38.384Z,1.40
2022-09-06T15:51:06.210Z,2.00
2022-09-06T15:53:33.854Z,1.80
2022-09-06T15:56:02.804Z,2.00
2022-09-06T15:58:30.611Z,2.00
2022-09-06T16:00:58.345Z,0.00
2022-09-06T16:03:26.633Z,1.80
2022-09-06T16:08:42.017Z,1.60
2022-09-06T16:11:10.804Z,2.00
2022-09-06T16:13:38.522Z,2.20
2022-09-06T16:16:06.312Z,1.20
2022-09-06T16:18:34.025Z,1.00
2022-09-06T16:21:03.165Z,2.80
2022-09-06T16:23:31.332Z,2.80
2022-09-06T16:25:59.013Z,3.00
2022-09-06T16:28:26.728Z,3.00
2022-09-06T16:30:54.523Z,2.00
2022-09-06T16:33:23.619Z,2.80
2022-09-06T16:35:51.400Z,3.00
2022-09-06T16:38:19.628Z,2.20
2022-09-06T16:40:47.474Z,2.40
2022-09-06T16:43:17.538Z,3.00
2022-09-06T16:45:45.330Z,2.00
2022-09-06T16:48:13.068Z,2.00
2022-09-06T16:50:40.820Z,2.40
2022-09-06T16:53:10.931Z,2.00
2022-09-06T16:55:39.355Z,2.00
2022-09-06T16:58:07.095Z,2.80
2022-09-06T17:00:34.878Z,2.20
2022-09-06T17:03:07.553Z,1.20
2022-09-06T17:05:35.269Z,2.40
2022-09-06T17:08:03.478Z,2.60
2022-09-06T17:10:31.360Z,2.60
2022-09-06T17:12:59.483Z,2.00
2022-09-06T17:15:47.386Z,3.00
2022-09-06T17:18:14.095Z,1.00
2022-09-06T17:20:47.677Z,3.00
2022-09-06T17:23:19.205Z,3.00
2022-09-06T17:25:47.525Z,3.00
2022-09-06T17:28:15.183Z,3.00
2022-09-06T17:30:42.897Z,2.00
2022-09-06T17:33:10.689Z,3.00
2022-09-06T17:35:38.455Z,3.00
2022-09-06T17:38:06.242Z,3.00
2022-09-06T17:40:36.450Z,3.80
2022-09-06T17:43:05.328Z,2.40
2022-09-06T17:45:33.178Z,3.00
2022-09-06T17:48:01.109Z,3.40
2022-09-06T17:50:28.932Z,3.00
2022-09-06T17:52:56.989Z,3.00
2022-09-06T17:55:24.714Z,3.00
2022-09-06T17:57:52.573Z,3.00
2022-09-06T18:00:20.331Z,1.80
2022-09-06T18:02:54.681Z,3.80
2022-09-06T18:05:23.220Z,3.00
2022-09-06T18:07:50.974Z,3.00
2022-09-06T18:10:18.944Z,4.00
2022-09-06T18:12:48.363Z,2.40
2022-09-06T18:15:16.028Z,3.00
2022-09-06T18:17:44.464Z,3.60
2022-09-06T18:20:12.107Z,2.60
2022-09-06T18:22:40.289Z,3.00
2022-09-06T18:25:08.980Z,4.00
2022-09-06T18:27:36.756Z,3.00
2022-09-06T18:30:04.508Z,3.00
2022-09-06T18:32:32.717Z,3.00
2022-09-06T18:35:00.605Z,3.00
2022-09-06T18:37:28.464Z,2.20
2022-09-06T18:39:56.291Z,3.00
2022-09-06T18:42:24.469Z,4.00
2022-09-06T18:44:52.235Z,3.00
2022-09-06T18:47:20.167Z,3.00
2022-09-06T18:49:48.191Z,3.80
2022-09-06T18:52:19.874Z,3.00
2022-09-06T18:54:49.623Z,3.00
2022-09-06T18:57:17.631Z,3.00
2022-09-06T18:59:45.711Z,3.00
2022-09-06T19:02:14.563Z,2.80
2022-09-06T19:04:42.404Z,5.00
2022-09-06T19:07:10.326Z,3.80
2022-09-06T19:09:38.119Z,3.00
2022-09-06T19:12:12.080Z,4.80
2022-09-06T19:14:39.920Z,2.20
2022-09-06T19:17:07.716Z,2.80
2022-09-06T19:19:35.443Z,3.00
2022-09-06T19:22:03.382Z,3.00
2022-09-06T19:24:31.363Z,2.00
2022-09-06T19:26:59.125Z,2.00
2022-09-06T19:29:27.630Z,3.80
2022-09-06T19:31:57.899Z,5.20
2022-09-06T19:34:25.685Z,5.00
2022-09-06T19:36:55.439Z,3.00
2022-09-06T19:39:23.323Z,4.20
2022-09-06T19:41:51.526Z,3.00
2022-09-06T19:44:20.856Z,2.00
2022-09-06T19:46:48.713Z,3.00
2022-09-06T19:49:16.551Z,3.00
2022-09-06T19:51:46.788Z,3.00
2022-09-06T19:54:15.625Z,5.00
2022-09-06T19:56:44.426Z,3.20
2022-09-06T19:59:13.097Z,5.60
2022-09-06T20:01:40.876Z,3.20
2022-09-06T20:04:15.205Z,5.00
2022-09-06T20:06:43.008Z,5.00
2022-09-06T20:09:10.801Z,0.00
2022-09-06T20:11:38.532Z,5.00
2022-09-06T20:14:06.601Z,4.20
2022-09-06T20:16:38.141Z,3.20
2022-09-06T20:19:08.545Z,4.80
2022-09-06T20:21:36.280Z,5.80
2022-09-06T20:24:04.137Z,5.40
2022-09-06T20:26:31.921Z,4.00
2022-09-06T20:28:59.844Z,0.00
2022-09-06T20:31:28.041Z,2.00
2022-09-06T20:33:56.203Z,3.20
2022-09-06T20:36:25.393Z,3.00
2022-09-06T20:38:53.207Z,5.00
2022-09-06T20:41:21.016Z,2.80
2022-09-06T20:43:49.231Z,2.40
2022-09-06T20:46:17.154Z,4.60
2022-09-06T20:48:45.446Z,5.00
2022-09-06T20:51:13.218Z,5.00
2022-09-06T20:53:42.262Z,3.20
2022-09-06T20:56:09.963Z,4.60
2022-09-06T20:58:38.737Z,5.00
2022-09-06T21:01:06.662Z,5.40
2022-09-06T21:03:35.867Z,3.20
2022-09-06T21:06:04.095Z,3.80
2022-09-06T21:08:34.671Z,3.20
2022-09-06T21:11:03.323Z,3.20
2022-09-06T21:13:31.320Z,3.40
2022-09-06T21:15:59.134Z,3.20
2022-09-06T21:18:27.070Z,2.00
2022-09-06T21:20:55.556Z,1.60
2022-09-06T21:23:23.662Z,3.20
2022-09-06T21:25:51.394Z,3.60
2022-09-06T21:28:19.110Z,3.20
2022-09-06T21:30:46.937Z,3.20
2022-09-06T21:33:15.787Z,4.00
2022-09-06T21:35:43.520Z,2.80
2022-09-06T21:38:11.183Z,2.00
2022-09-06T21:40:38.895Z,2.20
2022-09-06T21:43:06.818Z,2.00
2022-09-06T21:45:34.601Z,2.00
2022-09-06T21:48:02.332Z,2.00
2022-09-06T21:50:30.056Z,1.00
2022-09-06T21:52:58.463Z,1.00
2022-09-06T21:55:26.180Z,3.00
2022-09-06T21:57:53.809Z,3.20
2022-09-06T22:00:21.542Z,3.20
2022-09-06T22:02:49.896Z,2.60
2022-09-06T22:05:17.787Z,2.00
2022-09-06T22:07:45.421Z,2.00
2022-09-06T22:10:13.097Z,2.00
2022-09-06T22:12:42.272Z,2.00
2022-09-06T22:15:10.264Z,1.00
2022-09-06T22:17:37.995Z,1.20
2022-09-06T22:20:06.401Z,1.60
2022-09-06T22:22:35.588Z,2.00
2022-09-06T22:25:03.323Z,2.80
2022-09-06T22:27:31.021Z,1.00
2022-09-06T22:29:58.694Z,2.00
2022-09-06T22:32:26.646Z,1.00
2022-09-06T22:34:54.666Z,1.00
2022-09-06T22:37:22.397Z,1.20
2022-09-06T22:39:50.150Z,1.00
2022-09-06T22:42:18.219Z,2.00
2022-09-06T22:44:45.893Z,1.00
2022-09-06T22:47:13.611Z,1.40
2022-09-06T22:49:41.296Z,1.00
2022-09-06T22:52:10.040Z,1.00
2022-09-06T22:54:38.288Z,1.00
2022-09-06T22:57:05.971Z,1.00
2022-09-06T22:59:33.593Z,2.00
2022-09-06T23:02:01.634Z,2.00
2022-09-06T23:04:29.367Z,2.00
2022-09-06T23:06:57.105Z,2.00
2022-09-06T23:09:24.727Z,2.00
2022-09-06T23:11:52.895Z,2.00
2022-09-06T23:14:20.565Z,1.00
2022-09-06T23:16:48.293Z,2.00
2022-09-06T23:19:15.950Z,2.00
2022-09-06T23:21:43.793Z,1.00
2022-09-06T23:24:11.422Z,2.00
2022-09-06T23:26:39.043Z,2.00
2022-09-06T23:29:08.156Z,1.60
2022-09-06T23:31:35.822Z,1.60
2022-09-06T23:34:03.822Z,1.00
2022-09-06T23:36:31.449Z,1.00
2022-09-06T23:38:59.342Z,1.00
2022-09-06T23:41:27.008Z,1.80
2022-09-06T23:43:54.795Z,1.00
2022-09-06T23:46:22.533Z,1.00
2022-09-06T23:48:50.536Z,1.00
2022-09-06T23:51:18.154Z,1.00
2022-09-06T23:53:45.889Z,1.00
2022-09-06T23:56:13.549Z,1.20
2022-09-06T23:58:41.176Z,1.00
